Albion, Pennsylvania
Current Conditions -  °F | °C
As of 9:51 PM on Sunday 21 Dec 2014 (Local Time) from KERI Reporting Station
Overcast Overcast  
Wind Chill: 26°   Ceiling: 2600
Heat Index: 32°   Visibility: 10mi
Dew Point: 21°   Wind: 6mph
Humidity: 64%   Direction: 120°ESE
Pressure: 30.25"   Gusts: NA
Location:  41.89°N, 80.36°W
Report Text: KERI 220251Z 12005KT 10SM OVC026 00/M06 A3025 RMK AO2 SLP253 T00001061 56010
Loading
Personal Weather Stations






























Interactive Weather Map New forecast layout! Learn more

10-Day Weather Forecast

Advertisements
Track Severe Weather on mobile